createdAt,value
2019-04-10T00:01:37.644Z,5.23
2019-04-10T00:04:08.300Z,4.17
2019-04-10T00:06:39.504Z,4.30
2019-04-10T00:09:10.666Z,4.37
2019-04-10T00:11:43.189Z,7.77
2019-04-10T00:14:15.069Z,5.87
2019-04-10T00:16:47.498Z,5.50
2019-04-10T00:19:18.329Z,4.57
2019-04-10T00:21:49.416Z,7.43
2019-04-10T00:24:20.446Z,5.13
2019-04-10T00:26:52.271Z,7.10
2019-04-10T00:29:24.714Z,5.00
2019-04-10T00:31:56.400Z,7.73
2019-04-10T00:34:27.538Z,4.43
2019-04-10T00:36:59.635Z,5.67
2019-04-10T00:39:31.379Z,4.20
2019-04-10T00:42:03.004Z,5.87
2019-04-10T00:44:33.922Z,3.80
2019-04-10T00:47:04.705Z,3.93
2019-04-10T00:49:35.843Z,6.20
2019-04-10T00:52:06.475Z,4.30
2019-04-10T00:54:37.306Z,3.17
2019-04-10T00:57:08.153Z,7.20
2019-04-10T00:59:39.837Z,7.97
2019-04-10T01:02:10.745Z,5.00
2019-04-10T01:04:42.497Z,4.30
2019-04-10T01:07:13.028Z,4.57
2019-04-10T01:09:43.819Z,8.10
2019-04-10T01:12:14.545Z,2.80
2019-04-10T01:14:45.683Z,3.50
2019-04-10T01:17:16.405Z,2.73
2019-04-10T01:19:48.080Z,3.87
2019-04-10T01:22:19.078Z,3.57
2019-04-10T01:24:50.201Z,2.67
2019-04-10T01:27:21.213Z,2.07
2019-04-10T01:29:51.886Z,3.57
2019-04-10T01:32:23.721Z,1.97
2019-04-10T01:34:54.391Z,1.87
2019-04-10T01:37:26.940Z,1.37
2019-04-10T01:39:58.982Z,2.47
2019-04-10T01:42:30.395Z,1.70
2019-04-10T01:45:01.067Z,1.60
2019-04-10T01:47:33.597Z,1.63
2019-04-10T01:50:04.531Z,2.23
2019-04-10T01:52:35.474Z,2.13
2019-04-10T01:55:19.167Z,1.50
2019-04-10T01:57:39.429Z,1.80
2019-04-10T02:00:13.159Z,1.93
2019-04-10T02:02:47.771Z,1.60
2019-04-10T02:05:18.772Z,2.70
2019-04-10T02:08:01.156Z,1.40
2019-04-10T02:10:22.232Z,2.43
2019-04-10T02:12:53.232Z,1.60
2019-04-10T02:15:24.061Z,1.30
2019-04-10T02:17:55.155Z,2.40
2019-04-10T02:20:25.781Z,1.00
2019-04-10T02:22:56.580Z,1.13
2019-04-10T02:25:28.435Z,1.60
2019-04-10T02:27:59.538Z,1.97
2019-04-10T02:30:30.940Z,3.70
2019-04-10T02:33:04.322Z,2.00
2019-04-10T02:35:36.135Z,1.73
2019-04-10T02:38:27.368Z,1.87
2019-04-10T02:40:41.533Z,1.73
2019-04-10T02:43:13.920Z,1.50
2019-04-10T02:45:45.003Z,2.20
2019-04-10T02:48:17.112Z,1.53
2019-04-10T02:50:49.223Z,2.77
2019-04-10T02:53:21.733Z,1.20
2019-04-10T02:55:53.647Z,1.53
2019-04-10T02:58:24.811Z,1.87
2019-04-10T03:00:56.338Z,1.57
2019-04-10T03:03:27.654Z,2.43
2019-04-10T03:05:58.761Z,1.60
2019-04-10T03:08:46.813Z,1.10
2019-04-10T03:11:05.076Z,1.63
2019-04-10T03:13:35.864Z,5.30
2019-04-10T03:16:07.477Z,1.90
2019-04-10T03:18:39.093Z,2.67
2019-04-10T03:21:11.016Z,1.40
2019-04-10T03:23:42.646Z,1.87
2019-04-10T03:26:13.422Z,1.90
2019-04-10T03:28:45.182Z,2.70
2019-04-10T03:31:16.043Z,2.50
2019-04-10T03:33:58.759Z,2.53
2019-04-10T03:36:37.994Z,1.87
2019-04-10T03:39:10.698Z,2.27
2019-04-10T03:41:42.157Z,1.23
2019-04-10T03:44:14.542Z,1.73
2019-04-10T03:46:45.314Z,1.60
2019-04-10T03:49:16.204Z,1.33
2019-04-10T03:51:47.144Z,1.37
2019-04-10T03:54:18.704Z,2.30
2019-04-10T03:56:50.014Z,1.57
2019-04-10T03:59:20.875Z,1.33
2019-04-10T04:01:51.561Z,1.93
2019-04-10T04:04:22.291Z,1.60
2019-04-10T04:06:54.010Z,2.00
2019-04-10T04:09:24.776Z,3.00
2019-04-10T04:11:55.854Z,2.57
2019-04-10T04:14:26.594Z,1.53
2019-04-10T04:16:57.800Z,1.47
2019-04-10T04:19:28.752Z,2.23
2019-04-10T04:22:00.538Z,1.87
2019-04-10T04:24:31.604Z,1.80
2019-04-10T04:27:02.763Z,2.83
2019-04-10T04:29:34.505Z,1.67
2019-04-10T04:32:05.514Z,1.30
2019-04-10T04:34:37.342Z,2.23
2019-04-10T04:37:10.243Z,2.33
2019-04-10T04:39:40.898Z,2.50
2019-04-10T04:42:11.525Z,1.83
2019-04-10T04:44:43.395Z,1.20
2019-04-10T04:47:14.230Z,1.20
2019-04-10T04:49:45.114Z,2.10
2019-04-10T04:52:16.303Z,3.63
2019-04-10T04:54:47.722Z,2.63
2019-04-10T04:57:18.437Z,2.80
2019-04-10T04:59:49.126Z,1.70
2019-04-10T05:02:20.583Z,1.23
2019-04-10T05:04:51.520Z,3.10
2019-04-10T05:07:22.516Z,1.77
2019-04-10T05:09:53.461Z,2.17
2019-04-10T05:12:24.124Z,2.63
2019-04-10T05:14:55.779Z,2.00
2019-04-10T05:17:27.300Z,2.93
2019-04-10T05:19:58.696Z,1.33
2019-04-10T05:22:29.414Z,1.67
2019-04-10T05:25:00.668Z,1.00
2019-04-10T05:27:31.501Z,1.47
2019-04-10T05:30:02.398Z,1.17
2019-04-10T05:32:35.332Z,1.60
2019-04-10T05:35:08.494Z,1.80
2019-04-10T05:37:40.074Z,2.23
2019-04-10T05:40:11.837Z,2.30
2019-04-10T05:42:42.700Z,2.03
2019-04-10T05:45:14.840Z,1.47
2019-04-10T05:47:46.562Z,1.83
2019-04-10T05:50:17.501Z,1.20
2019-04-10T05:52:48.191Z,1.50
2019-04-10T05:55:19.095Z,1.50
2019-04-10T05:57:49.860Z,3.03
2019-04-10T06:00:22.901Z,1.00
2019-04-10T06:02:54.238Z,1.60
2019-04-10T06:05:24.997Z,2.70
2019-04-10T06:07:55.797Z,1.67
2019-04-10T06:10:26.773Z,1.93
2019-04-10T06:12:58.561Z,1.63
2019-04-10T06:15:29.250Z,2.33
2019-04-10T06:18:00.014Z,3.00
2019-04-10T06:20:31.392Z,3.13
2019-04-10T06:23:03.243Z,2.27
2019-04-10T06:25:36.684Z,1.67
2019-04-10T06:28:07.337Z,1.60
2019-04-10T06:30:38.170Z,2.40
2019-04-10T06:33:09.729Z,1.20
2019-04-10T06:35:40.480Z,3.80
2019-04-10T06:38:11.266Z,2.13
2019-04-10T06:40:42.482Z,2.13
2019-04-10T06:43:13.246Z,1.87
2019-04-10T06:45:44.446Z,2.07
2019-04-10T06:48:15.256Z,2.17
2019-04-10T06:50:46.133Z,1.30
2019-04-10T06:53:18.534Z,1.83
2019-04-10T06:55:49.478Z,1.40
2019-04-10T06:58:21.364Z,2.33
2019-04-10T07:00:53.837Z,2.30
2019-04-10T07:03:28.928Z,2.60
2019-04-10T07:06:06.344Z,4.87
2019-04-10T07:08:29.963Z,3.33
2019-04-10T07:11:07.799Z,3.57
2019-04-10T07:13:36.833Z,2.13
2019-04-10T07:16:06.284Z,2.63
2019-04-10T07:18:38.643Z,3.93
2019-04-10T07:21:10.593Z,3.20
2019-04-10T07:23:42.733Z,2.40
2019-04-10T07:26:18.490Z,1.30
2019-04-10T07:28:47.556Z,1.90
2019-04-10T07:31:19.367Z,1.50
2019-04-10T07:33:51.925Z,2.80
2019-04-10T07:36:23.021Z,2.67
2019-04-10T07:38:56.107Z,1.50
2019-04-10T07:41:26.540Z,3.33
2019-04-10T07:43:58.316Z,2.30
2019-04-10T07:46:31.069Z,3.60
2019-04-10T07:49:02.944Z,3.30
2019-04-10T07:51:34.075Z,3.33
2019-04-10T07:54:06.049Z,3.13
2019-04-10T07:56:37.510Z,2.90
2019-04-10T07:59:08.802Z,2.30
2019-04-10T08:01:40.676Z,3.10
2019-04-10T08:04:12.512Z,2.03
2019-04-10T08:06:44.434Z,3.77
2019-04-10T08:09:15.366Z,4.67
2019-04-10T08:11:46.876Z,3.20
2019-04-10T08:14:17.689Z,4.00
2019-04-10T08:16:49.738Z,3.47
2019-04-10T08:19:20.797Z,2.37
2019-04-10T08:21:52.705Z,3.63
2019-04-10T08:24:23.763Z,3.47
2019-04-10T08:26:54.888Z,2.57
2019-04-10T08:29:26.024Z,3.27
2019-04-10T08:31:56.829Z,2.40
2019-04-10T08:34:28.118Z,4.10
2019-04-10T08:36:59.686Z,3.47
2019-04-10T08:39:37.751Z,3.00
2019-04-10T08:42:03.179Z,3.10
2019-04-10T08:44:34.027Z,2.70
2019-04-10T08:47:04.742Z,4.10
2019-04-10T08:49:35.450Z,2.50
2019-04-10T08:52:06.512Z,2.30
2019-04-10T08:54:38.400Z,3.47
2019-04-10T08:57:09.622Z,2.80
2019-04-10T08:59:44.037Z,6.47
2019-04-10T09:02:15.911Z,4.97
2019-04-10T09:04:46.877Z,2.30
2019-04-10T09:07:17.651Z,2.93
2019-04-10T09:09:48.550Z,2.47
2019-04-10T09:12:19.827Z,3.60
2019-04-10T09:14:51.680Z,4.10
2019-04-10T09:17:24.987Z,3.17
2019-04-10T09:19:55.782Z,5.13
2019-04-10T09:22:26.786Z,7.70
2019-04-10T09:24:58.447Z,4.43
2019-04-10T09:27:29.127Z,3.50
2019-04-10T09:30:00.424Z,5.23
2019-04-10T09:32:32.614Z,4.13
2019-04-10T09:35:04.441Z,3.83
2019-04-10T09:37:35.282Z,3.53
2019-04-10T09:40:08.005Z,4.63
2019-04-10T09:42:39.607Z,5.17
2019-04-10T09:45:11.532Z,4.00
2019-04-10T09:47:43.767Z,2.33
2019-04-10T09:50:15.280Z,3.43
2019-04-10T09:52:50.432Z,4.13
2019-04-10T09:55:22.234Z,3.40
2019-04-10T09:57:58.324Z,3.47
2019-04-10T10:00:32.503Z,4.33
2019-04-10T10:03:03.552Z,5.73
2019-04-10T10:05:34.906Z,6.70
2019-04-10T10:08:07.419Z,4.77
2019-04-10T10:10:39.556Z,2.70
2019-04-10T10:13:10.773Z,3.40
2019-04-10T10:15:41.658Z,3.10
2019-04-10T10:18:12.998Z,5.67
2019-04-10T10:20:44.054Z,7.90
2019-04-10T10:23:15.811Z,3.60
2019-04-10T10:25:47.784Z,3.00
2019-04-10T10:28:18.804Z,3.70
2019-04-10T10:30:49.549Z,5.00
2019-04-10T10:33:21.556Z,3.73
2019-04-10T10:35:53.412Z,5.20
2019-04-10T10:38:25.165Z,2.57
2019-04-10T10:40:57.049Z,6.40
2019-04-10T10:43:28.798Z,4.43
2019-04-10T10:46:00.872Z,4.77
2019-04-10T10:48:31.780Z,3.20
2019-04-10T10:51:02.502Z,4.10
2019-04-10T10:53:34.544Z,5.97
2019-04-10T10:56:06.373Z,5.33
2019-04-10T10:58:38.171Z,7.37
2019-04-10T11:01:08.961Z,4.07
2019-04-10T11:03:40.509Z,5.67
2019-04-10T11:06:11.401Z,9.90
2019-04-10T11:08:42.236Z,9.00
2019-04-10T11:11:13.123Z,4.57
2019-04-10T11:13:43.893Z,12.97
2019-04-10T11:16:14.594Z,8.97
2019-04-10T11:18:46.860Z,7.13
2019-04-10T11:21:18.247Z,8.20
2019-04-10T11:23:49.507Z,7.80
2019-04-10T11:26:23.938Z,10.07
2019-04-10T11:28:53.075Z,8.13
2019-04-10T11:31:25.092Z,7.93
2019-04-10T11:33:56.890Z,8.97
2019-04-10T11:36:29.890Z,8.10
2019-04-10T11:39:12.014Z,9.63
2019-04-10T11:41:34.830Z,8.77
2019-04-10T11:44:08.128Z,7.43
2019-04-10T11:46:41.454Z,8.53
2019-04-10T11:49:13.957Z,9.43
2019-04-10T11:51:45.289Z,10.00
2019-04-10T11:54:18.025Z,9.90
2019-04-10T11:56:50.951Z,8.37
2019-04-10T12:04:29.554Z,10.97
2019-04-10T12:07:01.393Z,8.77
2019-04-10T12:10:49.415Z,11.03
2019-04-10T12:12:04.025Z,9.07
2019-04-10T12:14:35.431Z,9.10
2019-04-10T12:17:06.144Z,9.07
2019-04-10T12:19:36.924Z,9.43
2019-04-10T12:22:07.702Z,9.97
2019-04-10T12:24:38.457Z,9.97
2019-04-10T12:27:09.386Z,12.10
2019-04-10T12:29:40.515Z,12.17
2019-04-10T12:32:12.233Z,11.93
2019-04-10T12:34:44.462Z,12.93
2019-04-10T12:37:15.559Z,10.17
2019-04-10T12:39:47.481Z,9.50
2019-04-10T12:42:19.763Z,8.63
2019-04-10T12:44:51.402Z,9.13
2019-04-10T12:47:22.380Z,15.87
2019-04-10T12:49:54.013Z,11.03
2019-04-10T12:52:24.782Z,11.43
2019-04-10T12:54:55.649Z,11.13
2019-04-10T12:57:26.717Z,9.97
2019-04-10T13:00:01.492Z,14.27
2019-04-10T13:02:30.334Z,14.43
2019-04-10T13:05:01.161Z,12.43
2019-04-10T13:07:33.866Z,14.87
2019-04-10T13:10:05.005Z,10.00
2019-04-10T13:12:35.799Z,11.00
2019-04-10T13:15:08.566Z,14.30
2019-04-10T13:17:40.698Z,14.60
2019-04-10T13:20:14.178Z,12.27
2019-04-10T13:22:45.057Z,14.90
2019-04-10T13:25:16.358Z,15.23
2019-04-10T13:27:47.381Z,15.83
2019-04-10T13:30:18.751Z,10.40
2019-04-10T13:32:50.080Z,15.83
2019-04-10T13:35:21.937Z,16.83
2019-04-10T13:37:52.920Z,12.60
2019-04-10T13:40:23.671Z,13.30
2019-04-10T13:42:54.367Z,13.20
2019-04-10T13:45:25.133Z,12.77
2019-04-10T13:47:56.677Z,20.40
2019-04-10T13:50:27.526Z,16.03
2019-04-10T13:52:59.563Z,17.83
2019-04-10T13:55:30.589Z,16.20
2019-04-10T13:58:01.407Z,15.47
2019-04-10T14:00:39.910Z,16.93
2019-04-10T14:03:10.226Z,16.70
2019-04-10T14:05:41.318Z,16.03
2019-04-10T14:08:12.604Z,19.13
2019-04-10T14:10:44.511Z,17.53
2019-04-10T14:13:15.731Z,15.37
2019-04-10T14:15:48.438Z,16.10
2019-04-10T14:18:19.367Z,18.70
2019-04-10T14:20:51.330Z,14.70
2019-04-10T14:23:26.614Z,14.47
2019-04-10T14:26:20.312Z,18.40
2019-04-10T14:28:51.788Z,17.53
2019-04-10T14:31:26.650Z,14.07
2019-04-10T14:33:58.414Z,14.10
2019-04-10T14:36:29.819Z,16.37
2019-04-10T14:39:10.502Z,19.47
2019-04-10T14:41:35.994Z,12.27
2019-04-10T14:44:08.278Z,15.27
2019-04-10T14:46:40.048Z,21.87
2019-04-10T14:49:11.181Z,23.93
2019-04-10T14:51:42.208Z,18.10
2019-04-10T14:54:13.621Z,18.33
2019-04-10T14:56:44.504Z,18.00
2019-04-10T14:59:15.802Z,12.67
2019-04-10T15:01:46.698Z,16.13
2019-04-10T15:04:17.584Z,14.90
2019-04-10T15:06:48.487Z,19.03
2019-04-10T15:09:25.961Z,19.23
2019-04-10T15:11:55.337Z,18.17
2019-04-10T15:14:26.156Z,20.27
2019-04-10T15:17:02.318Z,17.93
2019-04-10T15:19:29.367Z,15.57
2019-04-10T15:22:01.165Z,14.47
2019-04-10T15:24:31.802Z,13.63
2019-04-10T15:27:02.783Z,16.03
2019-04-10T15:29:34.720Z,17.70
2019-04-10T15:32:06.411Z,14.23
2019-04-10T15:34:37.502Z,15.73
2019-04-10T15:37:08.882Z,15.10
2019-04-10T15:39:41.462Z,14.63
2019-04-10T15:42:12.365Z,16.43
2019-04-10T15:44:43.291Z,16.20
2019-04-10T15:47:19.613Z,11.50
2019-04-10T15:49:46.645Z,11.03
2019-04-10T15:52:17.794Z,15.17
2019-04-10T15:54:48.579Z,14.40
2019-04-10T15:57:19.531Z,15.67
2019-04-10T15:59:50.414Z,10.43
2019-04-10T16:02:21.714Z,14.50
2019-04-10T16:04:53.071Z,11.90
2019-04-10T16:07:24.473Z,16.93
2019-04-10T16:10:02.391Z,17.17
2019-04-10T16:12:33.553Z,13.77
2019-04-10T16:15:04.867Z,10.37
2019-04-10T16:17:44.068Z,14.93
2019-04-10T16:20:31.957Z,14.13
2019-04-10T16:23:15.004Z,12.63
2019-04-10T16:25:50.194Z,15.00
2019-04-10T16:28:21.069Z,16.27
2019-04-10T16:30:51.958Z,9.23
2019-04-10T16:33:23.247Z,13.37
2019-04-10T16:35:54.729Z,18.00
2019-04-10T16:38:26.718Z,12.40
2019-04-10T16:40:58.393Z,14.13
2019-04-10T16:43:30.623Z,14.67
2019-04-10T16:46:01.392Z,11.07
2019-04-10T16:48:33.399Z,23.50
2019-04-10T16:51:04.319Z,15.67
2019-04-10T16:53:36.312Z,11.53
2019-04-10T16:56:09.411Z,11.63
2019-04-10T16:58:41.598Z,16.30
2019-04-10T17:01:13.130Z,13.60
2019-04-10T17:03:44.246Z,9.23
2019-04-10T17:06:15.259Z,12.23
2019-04-10T17:08:46.125Z,12.63
2019-04-10T17:11:16.951Z,13.10
2019-04-10T17:13:48.880Z,20.13
2019-04-10T17:16:20.171Z,13.27
2019-04-10T17:18:51.709Z,14.53
2019-04-10T17:21:23.021Z,15.97
2019-04-10T17:23:53.898Z,10.33
2019-04-10T17:26:24.818Z,22.50
2019-04-10T17:28:56.637Z,14.03
2019-04-10T17:31:28.697Z,11.67
2019-04-10T17:34:00.607Z,15.90
2019-04-10T17:36:32.880Z,19.50
2019-04-10T17:39:05.244Z,13.10
2019-04-10T17:41:36.537Z,10.40
2019-04-10T17:44:07.738Z,12.43
2019-04-10T17:46:39.510Z,11.53
2019-04-10T17:49:11.944Z,11.70
2019-04-10T17:51:43.943Z,16.03
2019-04-10T17:54:16.217Z,14.00
2019-04-10T17:56:47.048Z,16.00
2019-04-10T17:59:18.353Z,11.60
2019-04-10T18:01:49.433Z,8.93
2019-04-10T18:04:20.340Z,12.70
2019-04-10T18:06:52.014Z,11.30
2019-04-10T18:09:24.911Z,13.37
2019-04-10T18:11:56.351Z,13.17
2019-04-10T18:14:27.323Z,12.63
2019-04-10T18:17:00.519Z,11.10
2019-04-10T18:19:32.327Z,11.77
2019-04-10T18:22:04.118Z,9.60
2019-04-10T18:24:35.975Z,11.57
2019-04-10T18:27:07.946Z,11.53
2019-04-10T18:29:39.357Z,11.57
2019-04-10T18:32:10.223Z,12.13
2019-04-10T18:34:41.103Z,9.23
2019-04-10T18:37:15.789Z,10.63
2019-04-10T18:39:44.683Z,11.13
2019-04-10T18:42:15.292Z,10.93
2019-04-10T18:44:46.940Z,14.00
2019-04-10T18:47:18.611Z,13.40
2019-04-10T18:49:49.748Z,11.60
2019-04-10T18:52:21.292Z,8.13
2019-04-10T18:54:52.163Z,8.60
2019-04-10T18:57:24.057Z,10.00
2019-04-10T19:00:30.181Z,7.63
2019-04-10T19:03:10.761Z,9.70
2019-04-10T19:05:45.659Z,10.73
2019-04-10T19:08:16.519Z,10.10
2019-04-10T19:10:48.388Z,8.23
2019-04-10T19:13:19.143Z,11.07
2019-04-10T19:15:49.924Z,11.50
2019-04-10T19:18:21.883Z,11.60
2019-04-10T19:20:53.288Z,8.23
2019-04-10T19:23:25.429Z,10.40
2019-04-10T19:25:56.814Z,8.13
2019-04-10T19:28:30.278Z,8.97
2019-04-10T19:31:14.635Z,9.37
2019-04-10T19:33:41.538Z,13.70
2019-04-10T19:36:12.620Z,10.53
2019-04-10T19:38:44.038Z,12.80
2019-04-10T19:41:25.214Z,10.33
2019-04-10T19:43:50.512Z,11.30
2019-04-10T19:46:21.638Z,11.67
2019-04-10T19:48:53.554Z,14.40
2019-04-10T19:51:24.544Z,10.27
2019-04-10T19:53:55.680Z,14.20
2019-04-10T19:56:26.747Z,11.83
2019-04-10T19:58:58.686Z,7.97
2019-04-10T20:01:31.308Z,9.90
2019-04-10T20:04:02.117Z,11.97
2019-04-10T20:06:32.835Z,6.90
2019-04-10T20:09:06.861Z,12.03
2019-04-10T20:11:43.403Z,10.00
2019-04-10T20:14:10.689Z,8.20
2019-04-10T20:16:41.624Z,12.30
2019-04-10T20:19:13.022Z,9.43
2019-04-10T20:21:44.095Z,9.27
2019-04-10T20:24:14.846Z,10.30
2019-04-10T20:26:45.735Z,10.37
2019-04-10T20:29:17.157Z,10.30
2019-04-10T20:31:49.825Z,8.73
2019-04-10T20:34:21.230Z,13.10
2019-04-10T20:36:53.301Z,7.40
2019-04-10T20:39:25.273Z,12.80
2019-04-10T20:41:58.344Z,10.37
2019-04-10T20:44:29.139Z,9.63
2019-04-10T20:47:00.386Z,13.30
2019-04-10T20:49:31.131Z,10.27
2019-04-10T20:52:02.151Z,11.47
2019-04-10T20:54:32.965Z,9.97
2019-04-10T20:57:04.946Z,8.80
2019-04-10T20:59:37.099Z,12.53
2019-04-10T21:02:08.021Z,7.27
2019-04-10T21:04:39.607Z,9.30
2019-04-10T21:07:12.563Z,12.43
2019-04-10T21:09:43.872Z,13.43
2019-04-10T21:12:18.088Z,9.27
2019-04-10T21:14:47.978Z,9.03
2019-04-10T21:17:18.988Z,11.77
2019-04-10T21:19:49.661Z,8.53
2019-04-10T21:22:20.467Z,8.50
2019-04-10T21:24:52.055Z,11.73
2019-04-10T21:27:22.946Z,15.63
2019-04-10T21:30:11.448Z,8.93
2019-04-10T21:32:56.927Z,7.37
2019-04-10T21:35:32.753Z,10.37
2019-04-10T21:38:04.799Z,14.70
2019-04-10T21:40:35.433Z,9.20
2019-04-10T21:43:06.311Z,8.93
2019-04-10T21:45:37.166Z,12.00
2019-04-10T21:48:08.546Z,12.43
2019-04-10T21:50:39.821Z,13.43
2019-04-10T21:53:10.476Z,10.30
2019-04-10T21:55:41.718Z,9.30
2019-04-10T21:58:13.070Z,8.43
2019-04-10T22:01:05.506Z,8.70
2019-04-10T22:03:37.873Z,12.73
2019-04-10T22:06:19.768Z,19.20
2019-04-10T22:09:10.443Z,8.63
2019-04-10T22:11:43.492Z,14.07
2019-04-10T22:14:15.085Z,18.03
2019-04-10T22:16:46.357Z,8.57
2019-04-10T22:19:17.067Z,12.77
2019-04-10T22:21:48.199Z,13.50
2019-04-10T22:24:18.941Z,13.63
2019-04-10T22:26:50.147Z,14.53
2019-04-10T22:29:21.761Z,9.73
2019-04-10T22:31:53.455Z,12.77
2019-04-10T22:34:24.161Z,9.33
2019-04-10T22:36:55.613Z,15.83
2019-04-10T22:39:27.431Z,15.07
2019-04-10T22:41:58.942Z,13.13
2019-04-10T22:44:37.522Z,14.43
2019-04-10T22:47:02.989Z,14.00
2019-04-10T22:49:34.869Z,10.20
2019-04-10T22:52:06.810Z,10.87
2019-04-10T22:54:38.839Z,11.07
2019-04-10T22:57:10.471Z,9.97
2019-04-10T22:59:42.266Z,12.10
2019-04-10T23:02:15.050Z,9.83
2019-04-10T23:04:47.106Z,10.67
2019-04-10T23:07:17.890Z,11.10
2019-04-10T23:09:48.686Z,10.47
2019-04-10T23:12:20.337Z,13.70
2019-04-10T23:14:51.240Z,10.50
2019-04-10T23:17:21.899Z,14.40
2019-04-10T23:19:54.251Z,12.10
2019-04-10T23:22:27.314Z,10.53
2019-04-10T23:24:58.202Z,11.57
2019-04-10T23:27:30.090Z,15.03
2019-04-10T23:30:00.996Z,10.97
2019-04-10T23:32:31.522Z,7.70
2019-04-10T23:35:03.210Z,8.97
2019-04-10T23:37:35.038Z,11.93
2019-04-10T23:40:06.845Z,8.33
2019-04-10T23:42:37.924Z,11.43
2019-04-10T23:45:09.700Z,10.77
2019-04-10T23:47:40.227Z,9.73
2019-04-10T23:50:12.153Z,9.70
2019-04-10T23:52:44.338Z,11.03
2019-04-10T23:55:15.529Z,10.33
2019-04-10T23:57:46.614Z,9.07
